sensor_id;sensor_type;location;lat;lon;timestamp;P1;durP1;ratioP1;P2;durP2;ratioP2
35126;SDS011;21300;52.006;5.798;2023-05-10T00:01:21;25.98;;;18.45;;
35126;SDS011;21300;52.006;5.798;2023-05-10T00:03:46;27.00;;;20.20;;
35126;SDS011;21300;52.006;5.798;2023-05-10T00:06:12;27.15;;;20.20;;
35126;SDS011;21300;52.006;5.798;2023-05-10T00:08:38;27.13;;;20.27;;
35126;SDS011;21300;52.006;5.798;2023-05-10T00:11:03;27.60;;;20.48;;
35126;SDS011;21300;52.006;5.798;2023-05-10T00:13:29;29.13;;;20.00;;
35126;SDS011;21300;52.006;5.798;2023-05-10T00:15:55;30.65;;;21.20;;
35126;SDS011;21300;52.006;5.798;2023-05-10T00:18:20;30.60;;;20.60;;
35126;SDS011;21300;52.006;5.798;2023-05-10T00:20:46;30.45;;;22.25;;
35126;SDS011;21300;52.006;5.798;2023-05-10T00:23:13;31.50;;;22.73;;
35126;SDS011;21300;52.006;5.798;2023-05-10T00:25:39;30.98;;;21.30;;
35126;SDS011;21300;52.006;5.798;2023-05-10T00:28:04;32.55;;;21.83;;
35126;SDS011;21300;52.006;5.798;2023-05-10T00:30:30;32.70;;;22.33;;
35126;SDS011;21300;52.006;5.798;2023-05-10T00:32:55;33.70;;;24.30;;
35126;SDS011;21300;52.006;5.798;2023-05-10T00:35:21;33.45;;;23.83;;
35126;SDS011;21300;52.006;5.798;2023-05-10T00:37:47;40.55;;;26.10;;
35126;SDS011;21300;52.006;5.798;2023-05-10T00:40:12;39.83;;;27.27;;
35126;SDS011;21300;52.006;5.798;2023-05-10T00:42:38;40.40;;;27.73;;
35126;SDS011;21300;52.006;5.798;2023-05-10T00:45:04;40.20;;;26.83;;
35126;SDS011;21300;52.006;5.798;2023-05-10T00:47:31;39.60;;;27.52;;
35126;SDS011;21300;52.006;5.798;2023-05-10T00:49:57;45.88;;;29.00;;
35126;SDS011;21300;52.006;5.798;2023-05-10T00:52:23;40.50;;;28.58;;
35126;SDS011;21300;52.006;5.798;2023-05-10T00:54:50;42.42;;;28.40;;
35126;SDS011;21300;52.006;5.798;2023-05-10T00:57:16;42.08;;;29.83;;
35126;SDS011;21300;52.006;5.798;2023-05-10T00:59:42;45.88;;;29.55;;
35126;SDS011;21300;52.006;5.798;2023-05-10T01:02:08;45.45;;;29.70;;
35126;SDS011;21300;52.006;5.798;2023-05-10T01:04:33;42.42;;;30.05;;
35126;SDS011;21300;52.006;5.798;2023-05-10T01:07:00;44.13;;;28.95;;
35126;SDS011;21300;52.006;5.798;2023-05-10T01:09:26;39.03;;;26.33;;
35126;SDS011;21300;52.006;5.798;2023-05-10T01:11:52;44.35;;;30.23;;
35126;SDS011;21300;52.006;5.798;2023-05-10T01:14:19;46.55;;;31.00;;
35126;SDS011;21300;52.006;5.798;2023-05-10T01:16:46;47.92;;;31.00;;
35126;SDS011;21300;52.006;5.798;2023-05-10T01:34:48;53.33;;;29.98;;
35126;SDS011;21300;52.006;5.798;2023-05-10T01:37:42;50.17;;;33.08;;
35126;SDS011;21300;52.006;5.798;2023-05-10T01:42:42;53.03;;;33.90;;
35126;SDS011;21300;52.006;5.798;2023-05-10T01:47:51;58.95;;;34.58;;
35126;SDS011;21300;52.006;5.798;2023-05-10T01:50:27;50.30;;;32.25;;
35126;SDS011;21300;52.006;5.798;2023-05-10T01:52:56;55.95;;;32.58;;
35126;SDS011;21300;52.006;5.798;2023-05-10T01:55:25;53.30;;;33.35;;
35126;SDS011;21300;52.006;5.798;2023-05-10T01:57:56;53.35;;;32.58;;
35126;SDS011;21300;52.006;5.798;2023-05-10T02:00:29;55.42;;;32.50;;
35126;SDS011;21300;52.006;5.798;2023-05-10T02:02:56;53.42;;;33.72;;
35126;SDS011;21300;52.006;5.798;2023-05-10T02:05:22;51.10;;;32.75;;
35126;SDS011;21300;52.006;5.798;2023-05-10T02:07:49;53.47;;;31.92;;
35126;SDS011;21300;52.006;5.798;2023-05-10T02:10:16;51.65;;;30.95;;
35126;SDS011;21300;52.006;5.798;2023-05-10T02:12:43;53.33;;;32.00;;
35126;SDS011;21300;52.006;5.798;2023-05-10T02:15:12;54.47;;;32.22;;
35126;SDS011;21300;52.006;5.798;2023-05-10T02:17:47;52.72;;;31.45;;
35126;SDS011;21300;52.006;5.798;2023-05-10T02:20:14;53.78;;;32.20;;
35126;SDS011;21300;52.006;5.798;2023-05-10T02:22:41;51.95;;;32.45;;
35126;SDS011;21300;52.006;5.798;2023-05-10T02:25:09;54.65;;;32.78;;
35126;SDS011;21300;52.006;5.798;2023-05-10T02:27:38;58.60;;;32.90;;
35126;SDS011;21300;52.006;5.798;2023-05-10T02:30:04;54.80;;;31.58;;
35126;SDS011;21300;52.006;5.798;2023-05-10T02:32:32;54.50;;;32.33;;
35126;SDS011;21300;52.006;5.798;2023-05-10T02:34:59;51.47;;;31.70;;
35126;SDS011;21300;52.006;5.798;2023-05-10T02:37:27;51.95;;;32.78;;
35126;SDS011;21300;52.006;5.798;2023-05-10T02:39:54;54.78;;;31.40;;
35126;SDS011;21300;52.006;5.798;2023-05-10T02:42:23;52.20;;;31.77;;
35126;SDS011;21300;52.006;5.798;2023-05-10T02:44:52;49.10;;;29.48;;
35126;SDS011;21300;52.006;5.798;2023-05-10T02:47:25;57.58;;;32.35;;
35126;SDS011;21300;52.006;5.798;2023-05-10T02:49:50;55.22;;;31.83;;
35126;SDS011;21300;52.006;5.798;2023-05-10T02:52:26;52.30;;;30.63;;
35126;SDS011;21300;52.006;5.798;2023-05-10T02:54:55;59.90;;;31.83;;
35126;SDS011;21300;52.006;5.798;2023-05-10T02:57:27;51.90;;;29.17;;
35126;SDS011;21300;52.006;5.798;2023-05-10T02:59:56;56.70;;;31.45;;
35126;SDS011;21300;52.006;5.798;2023-05-10T03:02:22;55.70;;;31.20;;
35126;SDS011;21300;52.006;5.798;2023-05-10T03:04:48;51.25;;;30.67;;
35126;SDS011;21300;52.006;5.798;2023-05-10T03:07:13;53.45;;;31.52;;
35126;SDS011;21300;52.006;5.798;2023-05-10T03:09:40;58.85;;;32.25;;
35126;SDS011;21300;52.006;5.798;2023-05-10T03:12:16;57.88;;;31.90;;
35126;SDS011;21300;52.006;5.798;2023-05-10T03:17:52;51.70;;;30.30;;
35126;SDS011;21300;52.006;5.798;2023-05-10T03:20:31;55.25;;;31.80;;
35126;SDS011;21300;52.006;5.798;2023-05-10T03:23:12;50.88;;;29.70;;
35126;SDS011;21300;52.006;5.798;2023-05-10T03:25:46;51.58;;;29.40;;
35126;SDS011;21300;52.006;5.798;2023-05-10T03:28:14;54.15;;;31.90;;
35126;SDS011;21300;52.006;5.798;2023-05-10T03:30:41;57.38;;;30.52;;
35126;SDS011;21300;52.006;5.798;2023-05-10T03:33:08;48.20;;;28.48;;
35126;SDS011;21300;52.006;5.798;2023-05-10T03:35:34;50.75;;;31.20;;
35126;SDS011;21300;52.006;5.798;2023-05-10T03:38:00;49.85;;;29.65;;
35126;SDS011;21300;52.006;5.798;2023-05-10T03:40:26;47.00;;;28.70;;
35126;SDS011;21300;52.006;5.798;2023-05-10T03:42:54;46.25;;;28.88;;
35126;SDS011;21300;52.006;5.798;2023-05-10T03:45:20;53.05;;;30.83;;
35126;SDS011;21300;52.006;5.798;2023-05-10T03:47:46;49.10;;;30.60;;
35126;SDS011;21300;52.006;5.798;2023-05-10T03:50:11;43.83;;;27.10;;
35126;SDS011;21300;52.006;5.798;2023-05-10T03:52:37;51.55;;;31.23;;
35126;SDS011;21300;52.006;5.798;2023-05-10T03:55:04;47.92;;;28.02;;
35126;SDS011;21300;52.006;5.798;2023-05-10T03:57:30;53.92;;;31.17;;
35126;SDS011;21300;52.006;5.798;2023-05-10T03:59:56;51.92;;;31.42;;
35126;SDS011;21300;52.006;5.798;2023-05-10T04:02:21;48.13;;;28.55;;
35126;SDS011;21300;52.006;5.798;2023-05-10T04:04:47;52.67;;;31.13;;
35126;SDS011;21300;52.006;5.798;2023-05-10T04:07:13;52.38;;;30.80;;
35126;SDS011;21300;52.006;5.798;2023-05-10T04:09:39;58.47;;;33.00;;
35126;SDS011;21300;52.006;5.798;2023-05-10T04:12:04;57.45;;;33.42;;
35126;SDS011;21300;52.006;5.798;2023-05-10T04:14:30;56.95;;;32.45;;
35126;SDS011;21300;52.006;5.798;2023-05-10T04:16:56;55.60;;;33.72;;
35126;SDS011;21300;52.006;5.798;2023-05-10T04:19:21;60.95;;;34.00;;
35126;SDS011;21300;52.006;5.798;2023-05-10T04:21:47;61.22;;;33.83;;
35126;SDS011;21300;52.006;5.798;2023-05-10T04:24:13;60.95;;;33.85;;
35126;SDS011;21300;52.006;5.798;2023-05-10T04:26:38;61.22;;;34.40;;
35126;SDS011;21300;52.006;5.798;2023-05-10T04:29:04;61.70;;;33.25;;
35126;SDS011;21300;52.006;5.798;2023-05-10T04:31:30;61.88;;;34.53;;
35126;SDS011;21300;52.006;5.798;2023-05-10T04:33:55;63.08;;;33.78;;
35126;SDS011;21300;52.006;5.798;2023-05-10T04:36:21;63.33;;;34.35;;
35126;SDS011;21300;52.006;5.798;2023-05-10T04:38:46;69.32;;;36.10;;
35126;SDS011;21300;52.006;5.798;2023-05-10T04:41:12;61.85;;;33.88;;
35126;SDS011;21300;52.006;5.798;2023-05-10T04:43:38;61.03;;;33.05;;
35126;SDS011;21300;52.006;5.798;2023-05-10T04:46:04;60.33;;;31.15;;
35126;SDS011;21300;52.006;5.798;2023-05-10T04:48:30;56.05;;;29.25;;
35126;SDS011;21300;52.006;5.798;2023-05-10T04:50:55;57.10;;;30.35;;
35126;SDS011;21300;52.006;5.798;2023-05-10T04:53:21;56.03;;;29.95;;
35126;SDS011;21300;52.006;5.798;2023-05-10T04:55:47;50.97;;;29.38;;
35126;SDS011;21300;52.006;5.798;2023-05-10T04:58:14;50.90;;;28.70;;
35126;SDS011;21300;52.006;5.798;2023-05-10T05:00:39;56.85;;;30.20;;
35126;SDS011;21300;52.006;5.798;2023-05-10T05:03:05;50.83;;;27.55;;
35126;SDS011;21300;52.006;5.798;2023-05-10T05:05:31;54.88;;;29.80;;
35126;SDS011;21300;52.006;5.798;2023-05-10T05:07:56;52.92;;;28.00;;
35126;SDS011;21300;52.006;5.798;2023-05-10T05:10:22;53.53;;;29.42;;
35126;SDS011;21300;52.006;5.798;2023-05-10T05:12:48;52.42;;;28.35;;
35126;SDS011;21300;52.006;5.798;2023-05-10T05:15:13;47.92;;;27.30;;
35126;SDS011;21300;52.006;5.798;2023-05-10T05:17:40;51.80;;;27.70;;
35126;SDS011;21300;52.006;5.798;2023-05-10T05:20:06;54.35;;;28.40;;
35126;SDS011;21300;52.006;5.798;2023-05-10T05:22:32;53.28;;;27.73;;
35126;SDS011;21300;52.006;5.798;2023-05-10T05:24:57;55.75;;;27.65;;
35126;SDS011;21300;52.006;5.798;2023-05-10T05:27:23;54.90;;;28.83;;
35126;SDS011;21300;52.006;5.798;2023-05-10T05:29:54;57.10;;;30.33;;
35126;SDS011;21300;52.006;5.798;2023-05-10T05:32:20;56.42;;;28.80;;
35126;SDS011;21300;52.006;5.798;2023-05-10T05:34:46;60.33;;;30.35;;
35126;SDS011;21300;52.006;5.798;2023-05-10T05:37:15;59.58;;;30.27;;
35126;SDS011;21300;52.006;5.798;2023-05-10T05:39:42;56.15;;;30.55;;
35126;SDS011;21300;52.006;5.798;2023-05-10T05:42:08;58.53;;;30.77;;
35126;SDS011;21300;52.006;5.798;2023-05-10T05:44:34;51.75;;;29.23;;
35126;SDS011;21300;52.006;5.798;2023-05-10T05:47:00;62.95;;;31.50;;
35126;SDS011;21300;52.006;5.798;2023-05-10T05:49:25;63.83;;;31.35;;
35126;SDS011;21300;52.006;5.798;2023-05-10T05:51:51;54.13;;;28.38;;
35126;SDS011;21300;52.006;5.798;2023-05-10T05:54:17;57.13;;;31.13;;
35126;SDS011;21300;52.006;5.798;2023-05-10T05:56:42;60.53;;;30.52;;
35126;SDS011;21300;52.006;5.798;2023-05-10T05:59:09;56.95;;;29.38;;
35126;SDS011;21300;52.006;5.798;2023-05-10T06:01:35;54.50;;;28.70;;
35126;SDS011;21300;52.006;5.798;2023-05-10T06:04:01;54.17;;;29.85;;
35126;SDS011;21300;52.006;5.798;2023-05-10T06:06:26;58.78;;;30.65;;
35126;SDS011;21300;52.006;5.798;2023-05-10T06:08:52;62.70;;;28.65;;
35126;SDS011;21300;52.006;5.798;2023-05-10T06:11:18;54.70;;;29.70;;
35126;SDS011;21300;52.006;5.798;2023-05-10T06:13:43;58.00;;;30.35;;
35126;SDS011;21300;52.006;5.798;2023-05-10T06:16:09;61.03;;;30.55;;
35126;SDS011;21300;52.006;5.798;2023-05-10T06:18:35;55.92;;;29.42;;
35126;SDS011;21300;52.006;5.798;2023-05-10T06:21:01;64.10;;;29.10;;
35126;SDS011;21300;52.006;5.798;2023-05-10T06:23:26;65.00;;;30.70;;
35126;SDS011;21300;52.006;5.798;2023-05-10T06:25:52;59.97;;;29.77;;
35126;SDS011;21300;52.006;5.798;2023-05-10T06:28:17;57.75;;;30.05;;
35126;SDS011;21300;52.006;5.798;2023-05-10T06:30:43;60.45;;;31.20;;
35126;SDS011;21300;52.006;5.798;2023-05-10T06:33:09;61.45;;;32.10;;
35126;SDS011;21300;52.006;5.798;2023-05-10T06:35:35;65.85;;;30.67;;
35126;SDS011;21300;52.006;5.798;2023-05-10T06:38:01;59.25;;;31.73;;
35126;SDS011;21300;52.006;5.798;2023-05-10T06:40:27;61.78;;;30.38;;
35126;SDS011;21300;52.006;5.798;2023-05-10T06:42:53;56.70;;;31.38;;
35126;SDS011;21300;52.006;5.798;2023-05-10T06:45:18;59.55;;;31.90;;
35126;SDS011;21300;52.006;5.798;2023-05-10T06:47:44;63.78;;;33.00;;
35126;SDS011;21300;52.006;5.798;2023-05-10T06:50:10;66.38;;;33.38;;
35126;SDS011;21300;52.006;5.798;2023-05-10T06:52:36;59.53;;;33.40;;
35126;SDS011;21300;52.006;5.798;2023-05-10T06:55:02;58.97;;;32.28;;
35126;SDS011;21300;52.006;5.798;2023-05-10T06:57:29;60.33;;;32.72;;
35126;SDS011;21300;52.006;5.798;2023-05-10T06:59:55;64.38;;;32.70;;
35126;SDS011;21300;52.006;5.798;2023-05-10T07:02:23;62.20;;;32.42;;
35126;SDS011;21300;52.006;5.798;2023-05-10T07:04:49;62.85;;;32.25;;
35126;SDS011;21300;52.006;5.798;2023-05-10T07:07:15;68.55;;;34.17;;
35126;SDS011;21300;52.006;5.798;2023-05-10T07:09:40;63.75;;;34.00;;
35126;SDS011;21300;52.006;5.798;2023-05-10T07:12:07;66.95;;;34.25;;
35126;SDS011;21300;52.006;5.798;2023-05-10T07:14:32;62.28;;;32.00;;
35126;SDS011;21300;52.006;5.798;2023-05-10T07:16:58;67.32;;;34.00;;
35126;SDS011;21300;52.006;5.798;2023-05-10T07:19:23;67.80;;;34.70;;
35126;SDS011;21300;52.006;5.798;2023-05-10T07:21:49;64.40;;;32.83;;
35126;SDS011;21300;52.006;5.798;2023-05-10T07:24:15;67.68;;;32.92;;
35126;SDS011;21300;52.006;5.798;2023-05-10T07:26:41;67.60;;;34.72;;
35126;SDS011;21300;52.006;5.798;2023-05-10T07:29:06;71.90;;;34.22;;
35126;SDS011;21300;52.006;5.798;2023-05-10T07:31:32;61.35;;;32.08;;
35126;SDS011;21300;52.006;5.798;2023-05-10T07:33:58;61.30;;;32.45;;
35126;SDS011;21300;52.006;5.798;2023-05-10T07:36:23;64.95;;;32.67;;
35126;SDS011;21300;52.006;5.798;2023-05-10T07:38:49;59.08;;;31.42;;
35126;SDS011;21300;52.006;5.798;2023-05-10T07:41:15;62.72;;;33.25;;
35126;SDS011;21300;52.006;5.798;2023-05-10T07:43:40;62.88;;;31.98;;
35126;SDS011;21300;52.006;5.798;2023-05-10T07:46:06;59.00;;;32.42;;
35126;SDS011;21300;52.006;5.798;2023-05-10T07:48:32;60.25;;;31.00;;
35126;SDS011;21300;52.006;5.798;2023-05-10T07:50:58;60.15;;;30.35;;
35126;SDS011;21300;52.006;5.798;2023-05-10T07:53:24;61.72;;;30.25;;
35126;SDS011;21300;52.006;5.798;2023-05-10T07:55:51;57.72;;;29.75;;
35126;SDS011;21300;52.006;5.798;2023-05-10T07:58:21;65.10;;;33.38;;
35126;SDS011;21300;52.006;5.798;2023-05-10T08:00:47;65.55;;;31.77;;
35126;SDS011;21300;52.006;5.798;2023-05-10T08:03:14;58.13;;;30.25;;
35126;SDS011;21300;52.006;5.798;2023-05-10T08:05:39;56.90;;;30.60;;
35126;SDS011;21300;52.006;5.798;2023-05-10T08:08:05;59.00;;;31.00;;
35126;SDS011;21300;52.006;5.798;2023-05-10T08:10:31;59.03;;;30.50;;
35126;SDS011;21300;52.006;5.798;2023-05-10T08:12:57;58.38;;;30.35;;
35126;SDS011;21300;52.006;5.798;2023-05-10T08:15:23;57.60;;;30.73;;
35126;SDS011;21300;52.006;5.798;2023-05-10T08:17:50;49.67;;;27.92;;
35126;SDS011;21300;52.006;5.798;2023-05-10T08:20:16;50.33;;;27.08;;
35126;SDS011;21300;52.006;5.798;2023-05-10T08:22:44;41.17;;;24.35;;
35126;SDS011;21300;52.006;5.798;2023-05-10T08:25:10;44.85;;;24.25;;
35126;SDS011;21300;52.006;5.798;2023-05-10T08:27:35;43.90;;;25.00;;
35126;SDS011;21300;52.006;5.798;2023-05-10T08:30:01;41.22;;;24.30;;
35126;SDS011;21300;52.006;5.798;2023-05-10T08:32:27;40.20;;;23.38;;
35126;SDS011;21300;52.006;5.798;2023-05-10T08:34:52;35.30;;;21.73;;
35126;SDS011;21300;52.006;5.798;2023-05-10T08:37:18;40.78;;;21.42;;
35126;SDS011;21300;52.006;5.798;2023-05-10T08:39:43;34.72;;;21.67;;
35126;SDS011;21300;52.006;5.798;2023-05-10T08:42:12;37.08;;;21.48;;
35126;SDS011;21300;52.006;5.798;2023-05-10T08:44:43;34.08;;;20.63;;
35126;SDS011;21300;52.006;5.798;2023-05-10T08:47:08;29.30;;;17.92;;
35126;SDS011;21300;52.006;5.798;2023-05-10T08:49:36;29.17;;;16.83;;
35126;SDS011;21300;52.006;5.798;2023-05-10T08:52:03;27.42;;;15.20;;
35126;SDS011;21300;52.006;5.798;2023-05-10T08:54:31;24.25;;;15.50;;
35126;SDS011;21300;52.006;5.798;2023-05-10T08:56:58;28.33;;;15.20;;
35126;SDS011;21300;52.006;5.798;2023-05-10T08:59:23;24.40;;;14.75;;
35126;SDS011;21300;52.006;5.798;2023-05-10T09:01:49;25.33;;;15.65;;
35126;SDS011;21300;52.006;5.798;2023-05-10T09:04:16;24.33;;;13.30;;
35126;SDS011;21300;52.006;5.798;2023-05-10T09:06:41;21.58;;;13.88;;
35126;SDS011;21300;52.006;5.798;2023-05-10T09:09:07;19.90;;;12.27;;
35126;SDS011;21300;52.006;5.798;2023-05-10T09:11:33;22.17;;;12.40;;
35126;SDS011;21300;52.006;5.798;2023-05-10T09:13:59;19.50;;;11.80;;
35126;SDS011;21300;52.006;5.798;2023-05-10T09:16:25;19.33;;;12.38;;
35126;SDS011;21300;52.006;5.798;2023-05-10T09:18:51;19.23;;;11.65;;
35126;SDS011;21300;52.006;5.798;2023-05-10T09:21:17;16.63;;;11.20;;
35126;SDS011;21300;52.006;5.798;2023-05-10T09:23:45;20.80;;;11.63;;
35126;SDS011;21300;52.006;5.798;2023-05-10T09:26:11;19.33;;;10.93;;
35126;SDS011;21300;52.006;5.798;2023-05-10T09:31:22;16.45;;;10.52;;
35126;SDS011;21300;52.006;5.798;2023-05-10T09:33:50;18.25;;;10.38;;
35126;SDS011;21300;52.006;5.798;2023-05-10T09:36:16;16.02;;;10.23;;
35126;SDS011;21300;52.006;5.798;2023-05-10T09:38:50;16.92;;;9.82;;
35126;SDS011;21300;52.006;5.798;2023-05-10T09:41:19;15.98;;;9.88;;
35126;SDS011;21300;52.006;5.798;2023-05-10T09:43:49;18.15;;;11.10;;
35126;SDS011;21300;52.006;5.798;2023-05-10T09:46:15;16.90;;;10.25;;
35126;SDS011;21300;52.006;5.798;2023-05-10T09:48:42;16.20;;;10.52;;
35126;SDS011;21300;52.006;5.798;2023-05-10T09:51:21;18.45;;;11.18;;
35126;SDS011;21300;52.006;5.798;2023-05-10T09:53:47;20.65;;;11.82;;
35126;SDS011;21300;52.006;5.798;2023-05-10T09:56:36;17.05;;;11.07;;
35126;SDS011;21300;52.006;5.798;2023-05-10T09:59:02;17.63;;;11.95;;
35126;SDS011;21300;52.006;5.798;2023-05-10T10:01:28;18.92;;;11.60;;
35126;SDS011;21300;52.006;5.798;2023-05-10T10:03:54;21.90;;;12.15;;
35126;SDS011;21300;52.006;5.798;2023-05-10T10:06:22;19.00;;;12.80;;
35126;SDS011;21300;52.006;5.798;2023-05-10T10:08:48;20.45;;;12.40;;
35126;SDS011;21300;52.006;5.798;2023-05-10T10:11:15;19.80;;;12.20;;
35126;SDS011;21300;52.006;5.798;2023-05-10T10:13:41;17.58;;;12.13;;
35126;SDS011;21300;52.006;5.798;2023-05-10T10:16:07;19.80;;;11.63;;
35126;SDS011;21300;52.006;5.798;2023-05-10T10:18:34;20.63;;;12.30;;
35126;SDS011;21300;52.006;5.798;2023-05-10T10:21:04;21.52;;;11.95;;
35126;SDS011;21300;52.006;5.798;2023-05-10T10:23:34;19.60;;;13.43;;
35126;SDS011;21300;52.006;5.798;2023-05-10T10:26:00;17.63;;;12.38;;
35126;SDS011;21300;52.006;5.798;2023-05-10T10:28:35;19.80;;;12.30;;
35126;SDS011;21300;52.006;5.798;2023-05-10T10:31:18;22.48;;;12.98;;
35126;SDS011;21300;52.006;5.798;2023-05-10T10:36:24;19.92;;;12.18;;
35126;SDS011;21300;52.006;5.798;2023-05-10T10:41:40;18.27;;;12.57;;
35126;SDS011;21300;52.006;5.798;2023-05-10T10:49:48;17.70;;;11.55;;
35126;SDS011;21300;52.006;5.798;2023-05-10T10:54:58;16.27;;;10.52;;
35126;SDS011;21300;52.006;5.798;2023-05-10T10:57:26;18.65;;;11.98;;
35126;SDS011;21300;52.006;5.798;2023-05-10T11:02:53;17.38;;;11.02;;
35126;SDS011;21300;52.006;5.798;2023-05-10T11:10:34;15.18;;;10.10;;
35126;SDS011;21300;52.006;5.798;2023-05-10T11:13:03;15.68;;;9.32;;
35126;SDS011;21300;52.006;5.798;2023-05-10T11:15:34;15.70;;;10.00;;
35126;SDS011;21300;52.006;5.798;2023-05-10T11:18:20;14.68;;;9.05;;
35126;SDS011;21300;52.006;5.798;2023-05-10T11:26:11;20.20;;;10.55;;
35126;SDS011;21300;52.006;5.798;2023-05-10T11:28:41;16.88;;;10.88;;
35126;SDS011;21300;52.006;5.798;2023-05-10T11:31:07;17.60;;;11.25;;
35126;SDS011;21300;52.006;5.798;2023-05-10T11:33:43;14.75;;;9.93;;
35126;SDS011;21300;52.006;5.798;2023-05-10T11:36:17;16.42;;;10.65;;
35126;SDS011;21300;52.006;5.798;2023-05-10T11:38:44;14.97;;;10.03;;
35126;SDS011;21300;52.006;5.798;2023-05-10T11:41:11;16.63;;;9.88;;
35126;SDS011;21300;52.006;5.798;2023-05-10T11:43:40;14.77;;;10.07;;
35126;SDS011;21300;52.006;5.798;2023-05-10T11:46:07;21.60;;;10.15;;
35126;SDS011;21300;52.006;5.798;2023-05-10T11:48:40;14.43;;;9.20;;
35126;SDS011;21300;52.006;5.798;2023-05-10T11:51:10;12.50;;;8.88;;
35126;SDS011;21300;52.006;5.798;2023-05-10T11:53:36;14.73;;;8.48;;
35126;SDS011;21300;52.006;5.798;2023-05-10T11:56:06;13.55;;;8.77;;
35126;SDS011;21300;52.006;5.798;2023-05-10T11:58:33;14.02;;;8.13;;
35126;SDS011;21300;52.006;5.798;2023-05-10T12:00:59;14.15;;;8.77;;
35126;SDS011;21300;52.006;5.798;2023-05-10T12:03:29;11.30;;;7.38;;
35126;SDS011;21300;52.006;5.798;2023-05-10T12:05:56;16.30;;;9.18;;
35126;SDS011;21300;52.006;5.798;2023-05-10T12:08:26;13.98;;;8.52;;
35126;SDS011;21300;52.006;5.798;2023-05-10T12:10:54;11.57;;;8.48;;
35126;SDS011;21300;52.006;5.798;2023-05-10T12:13:29;12.05;;;7.28;;
35126;SDS011;21300;52.006;5.798;2023-05-10T12:15:58;9.07;;;5.95;;
35126;SDS011;21300;52.006;5.798;2023-05-10T12:18:24;12.30;;;6.95;;
35126;SDS011;21300;52.006;5.798;2023-05-10T12:20:53;12.23;;;7.30;;
35126;SDS011;21300;52.006;5.798;2023-05-10T12:23:19;12.63;;;7.63;;
35126;SDS011;21300;52.006;5.798;2023-05-10T12:25:45;10.63;;;7.15;;
35126;SDS011;21300;52.006;5.798;2023-05-10T12:28:11;11.95;;;7.25;;
35126;SDS011;21300;52.006;5.798;2023-05-10T12:30:37;8.90;;;6.07;;
35126;SDS011;21300;52.006;5.798;2023-05-10T12:33:07;10.52;;;6.28;;
35126;SDS011;21300;52.006;5.798;2023-05-10T12:35:44;9.77;;;6.30;;
35126;SDS011;21300;52.006;5.798;2023-05-10T12:38:26;13.38;;;7.68;;
35126;SDS011;21300;52.006;5.798;2023-05-10T12:40:54;13.05;;;7.45;;
35126;SDS011;21300;52.006;5.798;2023-05-10T12:43:20;10.90;;;7.60;;
35126;SDS011;21300;52.006;5.798;2023-05-10T12:45:46;10.85;;;6.65;;
35126;SDS011;21300;52.006;5.798;2023-05-10T12:48:14;10.40;;;6.40;;
35126;SDS011;21300;52.006;5.798;2023-05-10T12:50:40;11.63;;;6.38;;
35126;SDS011;21300;52.006;5.798;2023-05-10T12:53:05;8.70;;;5.75;;
35126;SDS011;21300;52.006;5.798;2023-05-10T12:55:31;9.52;;;5.75;;
35126;SDS011;21300;52.006;5.798;2023-05-10T12:57:56;9.07;;;5.40;;
35126;SDS011;21300;52.006;5.798;2023-05-10T13:00:22;8.10;;;5.47;;
35126;SDS011;21300;52.006;5.798;2023-05-10T13:02:48;9.38;;;5.85;;
35126;SDS011;21300;52.006;5.798;2023-05-10T13:05:14;11.20;;;6.05;;
35126;SDS011;21300;52.006;5.798;2023-05-10T13:07:39;9.32;;;5.95;;
35126;SDS011;21300;52.006;5.798;2023-05-10T13:10:06;9.95;;;6.00;;
35126;SDS011;21300;52.006;5.798;2023-05-10T13:12:32;9.55;;;5.70;;
35126;SDS011;21300;52.006;5.798;2023-05-10T13:14:57;11.45;;;6.90;;
35126;SDS011;21300;52.006;5.798;2023-05-10T13:17:24;10.60;;;6.20;;
35126;SDS011;21300;52.006;5.798;2023-05-10T13:19:50;10.77;;;6.65;;
35126;SDS011;21300;52.006;5.798;2023-05-10T13:22:16;10.93;;;6.30;;
35126;SDS011;21300;52.006;5.798;2023-05-10T13:24:42;9.68;;;5.85;;
35126;SDS011;21300;52.006;5.798;2023-05-10T13:27:07;8.68;;;6.25;;
35126;SDS011;21300;52.006;5.798;2023-05-10T13:29:33;8.10;;;5.47;;
35126;SDS011;21300;52.006;5.798;2023-05-10T13:31:59;8.93;;;5.68;;
35126;SDS011;21300;52.006;5.798;2023-05-10T13:34:25;7.25;;;5.07;;
35126;SDS011;21300;52.006;5.798;2023-05-10T13:36:50;11.52;;;6.57;;
35126;SDS011;21300;52.006;5.798;2023-05-10T13:39:16;9.73;;;6.70;;
35126;SDS011;21300;52.006;5.798;2023-05-10T13:41:41;10.93;;;7.50;;
35126;SDS011;21300;52.006;5.798;2023-05-10T13:44:07;10.85;;;8.45;;
35126;SDS011;21300;52.006;5.798;2023-05-10T13:46:33;10.55;;;8.35;;
35126;SDS011;21300;52.006;5.798;2023-05-10T13:48:58;10.32;;;8.82;;
35126;SDS011;21300;52.006;5.798;2023-05-10T13:51:24;11.82;;;9.07;;
35126;SDS011;21300;52.006;5.798;2023-05-10T13:53:50;12.55;;;10.02;;
35126;SDS011;21300;52.006;5.798;2023-05-10T13:56:15;12.07;;;10.32;;
35126;SDS011;21300;52.006;5.798;2023-05-10T13:58:41;12.98;;;9.40;;
35126;SDS011;21300;52.006;5.798;2023-05-10T14:01:06;11.27;;;9.63;;
35126;SDS011;21300;52.006;5.798;2023-05-10T14:03:33;11.65;;;9.88;;
35126;SDS011;21300;52.006;5.798;2023-05-10T14:05:58;12.98;;;9.85;;
35126;SDS011;21300;52.006;5.798;2023-05-10T14:08:24;11.13;;;9.60;;
35126;SDS011;21300;52.006;5.798;2023-05-10T14:10:51;10.00;;;8.85;;
35126;SDS011;21300;52.006;5.798;2023-05-10T14:13:17;9.30;;;8.23;;
35126;SDS011;21300;52.006;5.798;2023-05-10T14:15:43;9.07;;;7.75;;
35126;SDS011;21300;52.006;5.798;2023-05-10T14:18:09;9.02;;;7.22;;
35126;SDS011;21300;52.006;5.798;2023-05-10T14:20:34;10.05;;;7.60;;
35126;SDS011;21300;52.006;5.798;2023-05-10T14:23:00;9.88;;;6.97;;
35126;SDS011;21300;52.006;5.798;2023-05-10T14:25:26;8.45;;;6.80;;
35126;SDS011;21300;52.006;5.798;2023-05-10T14:27:51;13.95;;;7.03;;
35126;SDS011;21300;52.006;5.798;2023-05-10T14:30:19;8.27;;;6.30;;
35126;SDS011;21300;52.006;5.798;2023-05-10T14:32:45;8.55;;;5.97;;
35126;SDS011;21300;52.006;5.798;2023-05-10T14:35:11;7.90;;;6.25;;
35126;SDS011;21300;52.006;5.798;2023-05-10T14:37:37;8.32;;;6.15;;
35126;SDS011;21300;52.006;5.798;2023-05-10T14:40:03;8.60;;;6.32;;
35126;SDS011;21300;52.006;5.798;2023-05-10T14:42:29;6.68;;;5.38;;
35126;SDS011;21300;52.006;5.798;2023-05-10T14:44:56;7.82;;;6.05;;
35126;SDS011;21300;52.006;5.798;2023-05-10T14:47:21;7.40;;;5.57;;
35126;SDS011;21300;52.006;5.798;2023-05-10T14:49:47;8.50;;;5.15;;
35126;SDS011;21300;52.006;5.798;2023-05-10T14:52:13;8.07;;;5.40;;
35126;SDS011;21300;52.006;5.798;2023-05-10T14:54:39;6.90;;;5.00;;
35126;SDS011;21300;52.006;5.798;2023-05-10T14:57:05;5.38;;;4.15;;
35126;SDS011;21300;52.006;5.798;2023-05-10T14:59:31;5.40;;;4.10;;
35126;SDS011;21300;52.006;5.798;2023-05-10T15:01:57;4.85;;;3.83;;
35126;SDS011;21300;52.006;5.798;2023-05-10T15:04:23;4.70;;;3.15;;
35126;SDS011;21300;52.006;5.798;2023-05-10T15:06:49;3.85;;;3.05;;
35126;SDS011;21300;52.006;5.798;2023-05-10T15:09:14;3.47;;;3.00;;
35126;SDS011;21300;52.006;5.798;2023-05-10T15:11:41;4.60;;;2.50;;
35126;SDS011;21300;52.006;5.798;2023-05-10T15:14:07;4.30;;;2.72;;
35126;SDS011;21300;52.006;5.798;2023-05-10T15:16:32;5.60;;;3.17;;
35126;SDS011;21300;52.006;5.798;2023-05-10T15:18:58;3.30;;;2.30;;